Terminal Aerodrome Forecast
Issued by NWS St Louis, MO

Home | Current Version | Previous Version | Text Only | Print | Product List | Glossary On
Versions: 1 2 3 4 5 6 7 8 9 10 11
315
FTUS43 KLSX 202129 AAA
TAFCOU
TAF AMD
KCOU 202129Z 2021/2118 30012G20KT P6SM BKN140
     FM210000 36007KT P6SM BKN250
     FM211700 03010KT P6SM VCSH SCT020 BKN040=

USA.gov is the U.S. government's official web portal to all federal, state and local government web resources and services.